This is the latest recevied weather packets stored in our database for station/object GW4288. If no packets are shown the sender has not sent any weather packets the latest 1 day(s).
| Time | Temp. | Humidity | Pressure | Rain* | Wind** | Luminosity | Snow |
|---|---|---|---|---|---|---|---|
| 1778175656 | 15° C | 76% | 1012.7 hPa | 0 mm | - | 10 W/m² | - |
| 1778175549 | 15° C | 75% | 1012.7 hPa | 0 mm | - | 11 W/m² | - |
| 1778175416 | 15° C | 75% | 1012.6 hPa | 0 mm | - | 12 W/m² | - |
| 1778175297 | 15° C | 75% | 1012.6 hPa | 0 mm | - | 13 W/m² | - |
| 1778175176 | 15.56° C | 73% | 1012.6 hPa | 0 mm | - | 13 W/m² | - |
| 1778175070 | 15.56° C | 74% | 1012.5 hPa | 0 mm | - | 14 W/m² | - |
| 1778174936 | 15.56° C | 75% | 1012.5 hPa | 0 mm | - | 15 W/m² | - |
| 1778174820 | 15.56° C | 73% | 1012.5 hPa | 0 mm | - | 15 W/m² | - |
| 1778174709 | 16.11° C | 73% | 1012.4 hPa | 0 mm | - | 16 W/m² | - |
| 1778174650 | 16.11° C | 72% | 1012.6 hPa | 0 mm | - | 17 W/m² | - |
| 1778174456 | 16.67° C | 71% | 1012.6 hPa | 0 mm | - | 17 W/m² | - |
| 1778174365 | 17.22° C | 69% | 1012.4 hPa | 0 mm | - | 17 W/m² | - |
| 1778174350 | 17.22° C | 60% | 1012.5 hPa | 0 mm | - | 18 W/m² | - |
| 1778174097 | 17.78° C | 68% | 1012.4 hPa | 0 mm | - | 19 W/m² | - |
| 1778173976 | 17.78° C | 67% | 1012.4 hPa | 0 mm | - | 26 W/m² | - |
| 1778173857 | 17.78° C | 64% | 1012.4 hPa | 0 mm | - | 27 W/m² | - |
| 1778173749 | 17.22° C | 59% | 1012.6 hPa | 0 mm | - | 43 W/m² | - |
| 1778173618 | 17.22° C | 68% | 1012.6 hPa | 0 mm | - | 46 W/m² | - |
| 1778173496 | 17.78° C | 67% | 1012.5 hPa | 0 mm | - | 47 W/m² | - |
| 1778173376 | 17.78° C | 63% | 1012.3 hPa | 0 mm | - | 32 W/m² | - |
| 1778173269 | 17.78° C | 64% | 1012.4 hPa | 0 mm | - | 27 W/m² | - |
| 1778173136 | 18.33° C | 63% | 1012.3 hPa | 0 mm | - | 27 W/m² | - |
| 1778173018 | 18.33° C | 62% | 1012.2 hPa | 0 mm | - | 27 W/m² | - |
| 1778172896 | 18.33° C | 61% | 1012.2 hPa | 0 mm | - | 25 W/m² | - |
| 1778172777 | 18.33° C | 60% | 1012.3 hPa | 0 mm | - | 25 W/m² | - |
* Rain latest hour (hover to see other rain measurements)
** Current wind speed in m/s (hover to see current wind gust speed)